Time;durP1;ratioP1;P1;durP2;ratioP2;P2;SDS_P1;SDS_P2;PMS_P1;PMS_P2;Temp;Humidity;BMP_temperature;BMP_pressure;BME280_temperature;BME280_humidity;BME280_pressure;Samples;Min_cycle;Max_cycle;Signal;HPM_P1;HPM_P2
2023/10/21 00:00:31;;;;;;;;;;;;;;;;;;5035293;28;19933;-76
2023/10/21 00:02:58;;;;;;;;;;;;;;;;;;5035605;28;19927;-77
2023/10/21 00:05:25;;;;;;;;;;;;;;;;;;5036346;28;19924;-76
2023/10/21 00:07:51;;;;;;;;;;;;;;;;;;5033467;28;19929;-76
2023/10/21 00:10:18;;;;;;;;;;;;;;;;;;5032021;28;19925;-75
2023/10/21 00:12:44;;;;;;;;;;;;;;;;;;5032002;28;19936;-75
2023/10/21 00:15:11;;;;;;;;;;;;;;;;;;5029916;28;20275;-76
2023/10/21 00:17:37;;;;;;;;;;;;;;;;;;5033743;28;19921;-76
2023/10/21 00:20:08;;;;;;;;;;;;;;;;;;5029382;28;19925;-75
2023/10/21 00:22:35;;;;;;;;;;;;;;;;;;5023839;28;19925;-75
2023/10/21 00:25:02;;;;;;;;;;;;;;;;;;5035289;28;19944;-76
2023/10/21 00:27:28;;;;;;;;;;;;;;;;;;5031382;28;19927;-76
2023/10/21 00:29:55;;;;;;;;;;;;;;;;;;5030008;28;19921;-76
2023/10/21 00:32:22;;;;;;;;;;;;;;;;;;5027568;28;19989;-75
2023/10/21 00:34:49;;;;;;;;;;;;;;;;;;5033045;28;20213;-76
2023/10/21 00:37:15;;;;;;;;;;;;;;;;;;5031382;28;19968;-76
2023/10/21 00:39:46;;;;;;;;;;;;;;;;;;5038033;28;19986;-76
2023/10/21 00:42:12;;;;;;;;;;;;;;;;;;5031056;28;19960;-76
2023/10/21 00:44:39;;;;;;;;;;;;;;;;;;5008049;28;20399;-76
2023/10/21 00:47:05;;;;;;;;;;;;;;;;;;5057037;28;19937;-76
2023/10/21 00:49:32;;;;;;;;;;;;;;;;;;5030401;28;19920;-76
2023/10/21 00:51:59;;;;;;;;;;;;;;;;;;5033848;28;19972;-76
2023/10/21 00:54:25;;;;;;;;;;;;;;;;;;5038220;28;19928;-77
2023/10/21 00:56:52;;;;;;;;;;;;;;;;;;5032577;28;19928;-77
2023/10/21 00:59:18;;;;;;;;;;;;;;;;;;5030679;28;20386;-77
2023/10/21 01:01:45;;;;;;;;;;;;;;;;;;5022651;28;19922;-77
2023/10/21 01:04:11;;;;;;;;;;;;;;;;;;5027185;28;20406;-77
2023/10/21 01:06:38;;;;;;;;;;;;;;;;;;5011243;28;19929;-77
2023/10/21 01:09:04;;;;;;;;;;;;;;;;;;5016278;28;19925;-77
2023/10/21 01:11:34;;;;;;;;;;;;;;;;;;5023067;28;20194;-76
2023/10/21 01:14:00;;;;;;;;;;;;;;;;;;5030872;28;20398;-77
2023/10/21 01:16:28;;;;;;;;;;;;;;;;;;5030280;28;19920;-77
2023/10/21 01:18:54;;;;;;;;;;;;;;;;;;5026839;28;19936;-75
2023/10/21 01:21:21;;;;;;;;;;;;;;;;;;5028268;28;19920;-77
2023/10/21 01:23:47;;;;;;;;;;;;;;;;;;5027469;28;19921;-77
2023/10/21 01:26:14;;;;;;;;;;;;;;;;;;5025119;28;19970;-77
2023/10/21 01:28:40;;;;;;;;;;;;;;;;;;5013199;28;19974;-74
2023/10/21 01:31:07;;;;;;;;;;;;;;;;;;5026284;28;19925;-77
2023/10/21 01:33:33;;;;;;;;;;;;;;;;;;5030095;28;19927;-77
2023/10/21 01:36:00;;;;;;;;;;;;;;;;;;5026475;28;19921;-77
2023/10/21 01:38:27;;;;;;;;;;;;;;;;;;5036253;28;19927;-77
2023/10/21 01:40:53;;;;;;;;;;;;;;;;;;5033593;28;19925;-77
2023/10/21 01:43:20;;;;;;;;;;;;;;;;;;5028574;28;19924;-77
2023/10/21 01:45:46;;;;;;;;;;;;;;;;;;5027845;28;20534;-76
2023/10/21 01:48:16;;;;;;;;;;;;;;;;;;5032524;28;19929;-77
2023/10/21 01:50:43;;;;;;;;;;;;;;;;;;5026775;28;19948;-76
2023/10/21 01:53:11;;;;;;;;;;;;;;;;;;5011292;28;19929;-77
2023/10/21 01:55:38;;;;;;;;;;;;;;;;;;5027831;28;19935;-77
2023/10/21 01:58:07;;;;;;;;;;;;;;;;;;5029905;28;20272;-75
2023/10/21 02:00:34;;;;;;;;;;;;;;;;;;5027085;28;20299;-76
2023/10/21 02:03:02;;;;;;;;;;;;;;;;;;5029143;28;19924;-76
2023/10/21 02:05:29;;;;;;;;;;;;;;;;;;5029796;28;19956;-77
2023/10/21 02:07:56;;;;;;;;;;;;;;;;;;5032785;28;19921;-76
2023/10/21 02:10:23;;;;;;;;;;;;;;;;;;5032691;28;19925;-75
2023/10/21 02:12:49;;;;;;;;;;;;;;;;;;5025590;28;20681;-77
2023/10/21 02:15:16;;;;;;;;;;;;;;;;;;5024709;28;19944;-76
2023/10/21 02:17:43;;;;;;;;;;;;;;;;;;5029886;28;19925;-77
2023/10/21 02:20:10;;;;;;;;;;;;;;;;;;5009298;28;20420;-76
2023/10/21 02:22:37;;;;;;;;;;;;;;;;;;5025924;28;19947;-76
2023/10/21 02:25:04;;;;;;;;;;;;;;;;;;5024326;28;19929;-76
2023/10/21 02:27:39;;;;;;;;;;;;;;;;;;5025647;28;20322;-77
2023/10/21 02:30:07;;;;;;;;;;;;;;;;;;5030303;28;19921;-77
2023/10/21 02:32:33;;;;;;;;;;;;;;;;;;5025462;28;19935;-77
2023/10/21 02:35:00;;;;;;;;;;;;;;;;;;5028872;28;19928;-77
2023/10/21 02:37:26;;;;;;;;;;;;;;;;;;5025584;28;19985;-76
2023/10/21 02:39:54;;;;;;;;;;;;;;;;;;5026200;28;21369;-77
2023/10/21 02:42:20;;;;;;;;;;;;;;;;;;5030797;28;19926;-77
2023/10/21 02:44:47;;;;;;;;;;;;;;;;;;5025025;28;19928;-76
2023/10/21 02:47:13;;;;;;;;;;;;;;;;;;5025606;28;19921;-77
2023/10/21 02:49:40;;;;;;;;;;;;;;;;;;5042974;28;20414;-77
2023/10/21 02:52:06;;;;;;;;;;;;;;;;;;5027966;28;19925;-77
2023/10/21 02:54:33;;;;;;;;;;;;;;;;;;5046855;28;20414;-77
2023/10/21 02:56:59;;;;;;;;;;;;;;;;;;5031114;28;19961;-77
2023/10/21 02:59:26;;;;;;;;;;;;;;;;;;5030339;28;19925;-76
2023/10/21 03:01:53;;;;;;;;;;;;;;;;;;5041378;28;19921;-77
2023/10/21 03:04:19;;;;;;;;;;;;;;;;;;5036537;28;20373;-77
2023/10/21 03:06:46;;;;;;;;;;;;;;;;;;4999244;28;19963;-77
2023/10/21 03:09:15;;;;;;;;;;;;;;;;;;5010496;28;19947;-77
2023/10/21 03:11:42;;;;;;;;;;;;;;;;;;5030391;28;19921;-76
2023/10/21 03:14:09;;;;;;;;;;;;;;;;;;5024088;28;19927;-76
2023/10/21 03:16:35;;;;;;;;;;;;;;;;;;5037026;28;20383;-77
2023/10/21 03:19:04;;;;;;;;;;;;;;;;;;5031567;28;20377;-76
2023/10/21 03:21:30;;;;;;;;;;;;;;;;;;5026335;28;19974;-76
2023/10/21 03:23:57;;;;;;;;;;;;;;;;;;5032578;28;19925;-76
2023/10/21 03:26:23;;;;;;;;;;;;;;;;;;5032125;28;20005;-76
2023/10/21 03:28:50;;;;;;;;;;;;;;;;;;5010351;28;19943;-75
2023/10/21 03:31:17;;;;;;;;;;;;;;;;;;5030711;28;19921;-76
2023/10/21 03:33:44;;;;;;;;;;;;;;;;;;5023016;28;20315;-77
2023/10/21 03:36:10;;;;;;;;;;;;;;;;;;5021597;28;19921;-77
2023/10/21 03:38:37;;;;;;;;;;;;;;;;;;5030776;28;19928;-77
2023/10/21 03:41:04;;;;;;;;;;;;;;;;;;5019342;28;20384;-77
2023/10/21 03:43:30;;;;;;;;;;;;;;;;;;5009571;28;19925;-77
2023/10/21 03:45:57;;;;;;;;;;;;;;;;;;5009898;28;19975;-77
2023/10/21 03:48:24;;;;;;;;;;;;;;;;;;4997218;28;19925;-77
2023/10/21 03:50:50;;;;;;;;;;;;;;;;;;5004940;28;19921;-77
2023/10/21 03:53:17;;;;;;;;;;;;;;;;;;4999579;28;19932;-77
2023/10/21 03:55:43;;;;;;;;;;;;;;;;;;5028065;28;19920;-77
2023/10/21 03:58:13;;;;;;;;;;;;;;;;;;5022930;28;20373;-74
2023/10/21 04:00:39;;;;;;;;;;;;;;;;;;5008584;28;20143;-77
2023/10/21 04:03:07;;;;;;;;;;;;;;;;;;5012774;28;19921;-77
2023/10/21 04:05:34;;;;;;;;;;;;;;;;;;5004236;28;19971;-77
2023/10/21 04:08:04;;;;;;;;;;;;;;;;;;5005863;28;19921;-77
2023/10/21 04:10:31;;;;;;;;;;;;;;;;;;5004819;28;20343;-77
2023/10/21 04:12:59;;;;;;;;;;;;;;;;;;5038673;28;19936;-76
2023/10/21 04:15:27;;;;;;;;;;;;;;;;;;5026442;28;20163;-77
2023/10/21 04:17:54;;;;;;;;;;;;;;;;;;5011101;28;19976;-77
2023/10/21 04:20:21;;;;;;;;;;;;;;;;;;5034566;28;20039;-76
2023/10/21 04:22:48;;;;;;;;;;;;;;;;;;5035620;28;19921;-77
2023/10/21 04:25:14;;;;;;;;;;;;;;;;;;5027354;28;19932;-76
2023/10/21 04:27:41;;;;;;;;;;;;;;;;;;5033695;28;19928;-76
2023/10/21 04:30:08;;;;;;;;;;;;;;;;;;5032139;28;19920;-76
2023/10/21 04:32:34;;;;;;;;;;;;;;;;;;5031946;28;19930;-76
2023/10/21 04:35:01;;;;;;;;;;;;;;;;;;5032371;28;19928;-76
2023/10/21 04:37:27;;;;;;;;;;;;;;;;;;5030654;28;19952;-77
2023/10/21 04:39:54;;;;;;;;;;;;;;;;;;5034660;28;20137;-76
2023/10/21 04:42:20;;;;;;;;;;;;;;;;;;5028293;28;20449;-76
2023/10/21 04:44:47;;;;;;;;;;;;;;;;;;5025580;28;19975;-76
2023/10/21 04:47:15;;;;;;;;;;;;;;;;;;5029221;28;19928;-77
2023/10/21 04:49:45;;;;;;;;;;;;;;;;;;5033821;28;19928;-76
2023/10/21 04:52:11;;;;;;;;;;;;;;;;;;5028219;28;19925;-76
2023/10/21 04:54:38;;;;;;;;;;;;;;;;;;5031680;28;19921;-75
2023/10/21 04:57:07;;;;;;;;;;;;;;;;;;5035949;28;19987;-76
2023/10/21 04:59:34;;;;;;;;;;;;;;;;;;5028368;28;19966;-76
2023/10/21 05:02:00;;;;;;;;;;;;;;;;;;5028619;28;20391;-76
2023/10/21 05:04:27;;;;;;;;;;;;;;;;;;5027990;28;20350;-76
2023/10/21 05:06:53;;;;;;;;;;;;;;;;;;5027742;28;20283;-76
2023/10/21 05:09:20;;;;;;;;;;;;;;;;;;5027085;28;20367;-76
2023/10/21 05:11:46;;;;;;;;;;;;;;;;;;5027375;28;19925;-77
2023/10/21 05:14:13;;;;;;;;;;;;;;;;;;5026921;28;20115;-76
2023/10/21 05:16:39;;;;;;;;;;;;;;;;;;5027427;28;20007;-76
2023/10/21 05:19:06;;;;;;;;;;;;;;;;;;5023095;28;20003;-77
2023/10/21 05:21:33;;;;;;;;;;;;;;;;;;5002219;28;19921;-76
2023/10/21 05:23:59;;;;;;;;;;;;;;;;;;5009144;28;19928;-76
2023/10/21 05:26:26;;;;;;;;;;;;;;;;;;5007577;28;19929;-76
2023/10/21 05:28:52;;;;;;;;;;;;;;;;;;5007841;28;19921;-77
2023/10/21 05:31:19;;;;;;;;;;;;;;;;;;5014714;28;19921;-76
2023/10/21 05:33:45;;;;;;;;;;;;;;;;;;5014935;28;19921;-77
2023/10/21 05:36:12;;;;;;;;;;;;;;;;;;5036673;28;20341;-77
2023/10/21 05:38:38;;;;;;;;;;;;;;;;;;5013160;28;19921;-77
2023/10/21 05:41:05;;;;;;;;;;;;;;;;;;5016334;28;19929;-75
2023/10/21 05:43:32;;;;;;;;;;;;;;;;;;5007064;28;19929;-77
2023/10/21 05:45:58;;;;;;;;;;;;;;;;;;5028921;28;19921;-76
2023/10/21 05:48:25;;;;;;;;;;;;;;;;;;5008237;28;19921;-76
2023/10/21 05:50:52;;;;;;;;;;;;;;;;;;5009845;28;19921;-76
2023/10/21 05:53:18;;;;;;;;;;;;;;;;;;5006927;28;19928;-75
2023/10/21 05:55:45;;;;;;;;;;;;;;;;;;5006158;28;19925;-75
2023/10/21 05:58:11;;;;;;;;;;;;;;;;;;5012037;28;20338;-77
2023/10/21 06:00:38;;;;;;;;;;;;;;;;;;5007133;28;20093;-76
2023/10/21 06:03:05;;;;;;;;;;;;;;;;;;5006297;28;19922;-74
2023/10/21 06:05:32;;;;;;;;;;;;;;;;;;5005282;28;19930;-74
2023/10/21 06:07:58;;;;;;;;;;;;;;;;;;5008076;28;20388;-79
2023/10/21 06:10:25;;;;;;;;;;;;;;;;;;5002098;28;19932;-79
2023/10/21 06:12:52;;;;;;;;;;;;;;;;;;4998129;28;19930;-77
2023/10/21 06:15:18;;;;;;;;;;;;;;;;;;5007977;28;20286;-77
2023/10/21 06:17:45;;;;;;;;;;;;;;;;;;5011769;28;19925;-77
2023/10/21 06:20:11;;;;;;;;;;;;;;;;;;5015414;28;19925;-76
2023/10/21 06:22:38;;;;;;;;;;;;;;;;;;5019463;28;20552;-77
2023/10/21 06:25:06;;;;;;;;;;;;;;;;;;5026512;28;19926;-78
2023/10/21 06:27:33;;;;;;;;;;;;;;;;;;5020487;28;20019;-78
2023/10/21 06:29:59;;;;;;;;;;;;;;;;;;5013701;28;20069;-75
2023/10/21 06:32:26;;;;;;;;;;;;;;;;;;5006737;28;20485;-78
2023/10/21 06:34:52;;;;;;;;;;;;;;;;;;5038188;28;19929;-78
2023/10/21 06:37:19;;;;;;;;;;;;;;;;;;5005632;28;21746;-77
2023/10/21 06:39:46;;;;;;;;;;;;;;;;;;5031241;28;19932;-78
2023/10/21 06:42:15;;;;;;;;;;;;;;;;;;5004121;28;20885;-78
2023/10/21 06:44:42;;;;;;;;;;;;;;;;;;5027150;28;19925;-80
2023/10/21 06:47:08;;;;;;;;;;;;;;;;;;5007311;28;20358;-78
2023/10/21 06:49:35;;;;;;;;;;;;;;;;;;5032397;28;20515;-79
2023/10/21 06:52:01;;;;;;;;;;;;;;;;;;5028501;28;19975;-80
2023/10/21 06:54:28;;;;;;;;;;;;;;;;;;5027008;28;19951;-77
2023/10/21 06:56:55;;;;;;;;;;;;;;;;;;5025058;28;20231;-76
2023/10/21 06:59:22;;;;;;;;;;;;;;;;;;5026470;28;19932;-78
2023/10/21 07:01:49;;;;;;;;;;;;;;;;;;5027676;28;19925;-77
2023/10/21 07:04:15;;;;;;;;;;;;;;;;;;5030430;28;19924;-78
2023/10/21 07:06:42;;;;;;;;;;;;;;;;;;5021125;28;20224;-78
2023/10/21 07:09:08;;;;;;;;;;;;;;;;;;5023397;28;19932;-78
2023/10/21 07:11:35;;;;;;;;;;;;;;;;;;5022871;28;20421;-78
2023/10/21 07:14:01;;;;;;;;;;;;;;;;;;5022877;28;20102;-77
2023/10/21 07:16:28;;;;;;;;;;;;;;;;;;5025037;28;19978;-78
2023/10/21 07:18:55;;;;;;;;;;;;;;;;;;5022127;28;19936;-78
2023/10/21 07:21:21;;;;;;;;;;;;;;;;;;5021246;28;19925;-78
2023/10/21 07:23:48;;;;;;;;;;;;;;;;;;5023044;28;20010;-77
2023/10/21 07:26:14;;;;;;;;;;;;;;;;;;5026566;28;19935;-79
2023/10/21 07:28:41;;;;;;;;;;;;;;;;;;5029187;28;20561;-79
2023/10/21 07:31:08;;;;;;;;;;;;;;;;;;5024616;28;19929;-78
2023/10/21 07:33:35;;;;;;;;;;;;;;;;;;5026672;28;19937;-79
2023/10/21 07:36:04;;;;;;;;;;;;;;;;;;5023018;28;19932;-77
2023/10/21 07:38:31;;;;;;;;;;;;;;;;;;5026563;28;20395;-78
2023/10/21 07:40:57;;;;;;;;;;;;;;;;;;5031626;28;19933;-76
2023/10/21 07:43:24;;;;;;;;;;;;;;;;;;5030534;28;19931;-77
2023/10/21 07:45:51;;;;;;;;;;;;;;;;;;5031894;28;20171;-78
2023/10/21 07:48:20;;;;;;;;;;;;;;;;;;5035706;28;19925;-78
2023/10/21 07:50:47;;;;;;;;;;;;;;;;;;5036061;28;19929;-78
2023/10/21 07:53:14;;;;;;;;;;;;;;;;;;5029813;28;19924;-77
2023/10/21 07:55:41;;;;;;;;;;;;;;;;;;5029981;28;19924;-78
2023/10/21 07:58:08;;;;;;;;;;;;;;;;;;5026847;28;19928;-77
2023/10/21 08:00:34;;;;;;;;;;;;;;;;;;5026916;28;19929;-79
2023/10/21 08:03:01;;;;;;;;;;;;;;;;;;5028617;28;19928;-77
2023/10/21 08:05:28;;;;;;;;;;;;;;;;;;5020658;28;20383;-76
2023/10/21 08:07:55;;;;;;;;;;;;;;;;;;5032061;28;19921;-78
2023/10/21 08:10:22;;;;;;;;;;;;;;;;;;5032358;28;19984;-76
2023/10/21 08:12:49;;;;;;;;;;;;;;;;;;5028499;28;19932;-78
2023/10/21 08:15:15;;;;;;;;;;;;;;;;;;5027674;28;19924;-76
2023/10/21 08:17:42;;;;;;;;;;;;;;;;;;5029397;28;20371;-78
2023/10/21 08:20:09;;;;;;;;;;;;;;;;;;5034727;28;20262;-77
2023/10/21 08:22:36;;;;;;;;;;;;;;;;;;5029620;28;19986;-77
2023/10/21 08:25:03;;;;;;;;;;;;;;;;;;5030438;28;20473;-76
2023/10/21 08:27:29;;;;;;;;;;;;;;;;;;5023983;28;19928;-77
2023/10/21 08:29:57;;;;;;;;;;;;;;;;;;5036209;28;19928;-75
2023/10/21 08:32:24;;;;;;;;;;;;;;;;;;5036787;28;19925;-77
2023/10/21 08:34:51;;;;;;;;;;;;;;;;;;5030640;28;19921;-74
2023/10/21 08:37:17;;;;;;;;;;;;;;;;;;5035916;28;19929;-78
2023/10/21 08:39:44;;;;;;;;;;;;;;;;;;5030874;28;19925;-76
2023/10/21 08:42:10;;;;;;;;;;;;;;;;;;5036467;28;19921;-79
2023/10/21 08:44:37;;;;;;;;;;;;;;;;;;5034976;28;19936;-77
2023/10/21 08:47:04;;;;;;;;;;;;;;;;;;5042978;28;19994;-78
2023/10/21 08:49:31;;;;;;;;;;;;;;;;;;5040883;28;20184;-78
2023/10/21 08:51:57;;;;;;;;;;;;;;;;;;5034131;28;19931;-78
2023/10/21 08:54:24;;;;;;;;;;;;;;;;;;5028267;28;20379;-77
2023/10/21 08:56:50;;;;;;;;;;;;;;;;;;5052783;28;19952;-79
2023/10/21 08:59:17;;;;;;;;;;;;;;;;;;5031294;28;20370;-79
2023/10/21 09:01:46;;;;;;;;;;;;;;;;;;5032072;28;19921;-74
2023/10/21 09:04:16;;;;;;;;;;;;;;;;;;5030321;28;19921;-77
2023/10/21 09:06:42;;;;;;;;;;;;;;;;;;5027642;28;19925;-76
2023/10/21 09:09:09;;;;;;;;;;;;;;;;;;5054066;28;20306;-77
2023/10/21 09:11:35;;;;;;;;;;;;;;;;;;5033414;28;20159;-74
2023/10/21 09:14:02;;;;;;;;;;;;;;;;;;5025370;28;20391;-77
2023/10/21 09:16:29;;;;;;;;;;;;;;;;;;5043748;28;19925;-76
2023/10/21 09:18:55;;;;;;;;;;;;;;;;;;5004472;28;19980;-76
2023/10/21 09:21:22;;;;;;;;;;;;;;;;;;5023187;28;19926;-75
2023/10/21 09:23:49;;;;;;;;;;;;;;;;;;5007323;28;20143;-76
2023/10/21 09:26:16;;;;;;;;;;;;;;;;;;5005897;28;19925;-78
2023/10/21 09:28:42;;;;;;;;;;;;;;;;;;5016564;28;19931;-78
2023/10/21 09:31:09;;;;;;;;;;;;;;;;;;5026474;28;20289;-79
2023/10/21 09:33:35;;;;;;;;;;;;;;;;;;5028469;28;20397;-79
2023/10/21 09:36:03;;;;;;;;;;;;;;;;;;5030214;28;20322;-79
2023/10/21 09:38:44;;;;;;;;;;;;;;;;;;5026130;28;20771;-78
2023/10/21 09:41:13;;;;;;;;;;;;;;;;;;5033644;28;19929;-75
2023/10/21 09:43:40;;;;;;;;;;;;;;;;;;5018309;28;19939;-73
2023/10/21 09:46:06;;;;;;;;;;;;;;;;;;5022111;28;19963;-73
2023/10/21 09:48:33;;;;;;;;;;;;;;;;;;5027332;28;19925;-74
2023/10/21 09:50:59;;;;;;;;;;;;;;;;;;5021590;28;19951;-73
2023/10/21 09:53:26;;;;;;;;;;;;;;;;;;5026507;28;19924;-72
2023/10/21 09:55:52;;;;;;;;;;;;;;;;;;5021989;28;20385;-72
2023/10/21 09:58:19;;;;;;;;;;;;;;;;;;5022090;28;19931;-74
2023/10/21 10:00:46;;;;;;;;;;;;;;;;;;5021593;28;20348;-72
2023/10/21 10:03:12;;;;;;;;;;;;;;;;;;5018713;28;20358;-74
2023/10/21 10:05:39;;;;;;;;;;;;;;;;;;5020430;28;19944;-76
2023/10/21 10:08:06;;;;;;;;;;;;;;;;;;5022684;28;19928;-74
2023/10/21 10:10:34;;;;;;;;;;;;;;;;;;5022234;28;19931;-74
2023/10/21 10:13:01;;;;;;;;;;;;;;;;;;5023931;28;20031;-76
2023/10/21 10:15:28;;;;;;;;;;;;;;;;;;5021575;28;19935;-76
2023/10/21 10:17:54;;;;;;;;;;;;;;;;;;5023307;28;20000;-77
2023/10/21 10:20:23;;;;;;;;;;;;;;;;;;5046947;28;19986;-77
2023/10/21 10:22:50;;;;;;;;;;;;;;;;;;5023118;28;20014;-75
2023/10/21 10:25:19;;;;;;;;;;;;;;;;;;5034963;28;19931;-76
2023/10/21 10:27:46;;;;;;;;;;;;;;;;;;5025709;28;19931;-77
2023/10/21 10:30:12;;;;;;;;;;;;;;;;;;5034587;28;19954;-78
2023/10/21 10:32:43;;;;;;;;;;;;;;;;;;5013056;28;19924;-77
2023/10/21 10:35:13;;;;;;;;;;;;;;;;;;5035110;28;19925;-77
2023/10/21 10:37:40;;;;;;;;;;;;;;;;;;5002913;28;19952;-77
2023/10/21 10:40:06;;;;;;;;;;;;;;;;;;5010004;28;19936;-77
2023/10/21 10:42:35;;;;;;;;;;;;;;;;;;5012929;28;19925;-77
2023/10/21 10:45:03;;;;;;;;;;;;;;;;;;5011316;28;19925;-76
2023/10/21 10:47:29;;;;;;;;;;;;;;;;;;5014729;28;19978;-75
2023/10/21 10:49:56;;;;;;;;;;;;;;;;;;5005995;28;20407;-75
2023/10/21 10:52:22;;;;;;;;;;;;;;;;;;5008888;28;19936;-76
2023/10/21 10:54:49;;;;;;;;;;;;;;;;;;5001378;28;20523;-77
2023/10/21 10:57:16;;;;;;;;;;;;;;;;;;5001213;28;20034;-75
2023/10/21 10:59:42;;;;;;;;;;;;;;;;;;5006441;28;19933;-77
2023/10/21 11:02:14;;;;;;;;;;;;;;;;;;5004392;28;19953;-77
2023/10/21 11:04:44;;;;;;;;;;;;;;;;;;5000431;28;19931;-76
2023/10/21 11:07:10;;;;;;;;;;;;;;;;;;5003290;28;19929;-76
2023/10/21 11:09:38;;;;;;;;;;;;;;;;;;5000966;28;19931;-75
2023/10/21 11:12:05;;;;;;;;;;;;;;;;;;5002252;28;20014;-77
2023/10/21 11:14:36;;;;;;;;;;;;;;;;;;5005332;28;19929;-74
2023/10/21 11:17:04;;;;;;;;;;;;;;;;;;5015127;28;19929;-75
2023/10/21 11:19:31;;;;;;;;;;;;;;;;;;5008069;28;19926;-75
2023/10/21 11:21:57;;;;;;;;;;;;;;;;;;5004148;28;19925;-76
2023/10/21 11:24:26;;;;;;;;;;;;;;;;;;5014060;28;19925;-75
2023/10/21 11:26:52;;;;;;;;;;;;;;;;;;5022328;28;20339;-74
2023/10/21 11:29:19;;;;;;;;;;;;;;;;;;5027954;28;19933;-75
2023/10/21 11:31:45;;;;;;;;;;;;;;;;;;5022509;28;20228;-77
2023/10/21 11:34:12;;;;;;;;;;;;;;;;;;5020525;28;20299;-74
2023/10/21 11:36:44;;;;;;;;;;;;;;;;;;5017098;28;20223;-77
2023/10/21 11:39:14;;;;;;;;;;;;;;;;;;5020268;28;20288;-75
2023/10/21 11:41:40;;;;;;;;;;;;;;;;;;5020489;28;19924;-77
2023/10/21 11:44:08;;;;;;;;;;;;;;;;;;5021225;28;19929;-74
2023/10/21 11:46:35;;;;;;;;;;;;;;;;;;5020986;28;20387;-77
2023/10/21 11:49:04;;;;;;;;;;;;;;;;;;5022532;28;19925;-75
2023/10/21 11:51:31;;;;;;;;;;;;;;;;;;5024055;28;19925;-76
2023/10/21 11:53:57;;;;;;;;;;;;;;;;;;5013614;28;20331;-76
2023/10/21 12:01:12;;;;;;;;;;;;;;;;;;5005938;28;20365;-75
2023/10/21 12:03:26;;;;;;;;;;;;;;;;;;4989984;28;19936;-76
2023/10/21 12:11:08;;;;;;;;;;;;;;;;;;5008807;28;20410;-75
2023/10/21 12:39:48;;;;;;;;;;;;;;;;;;5017337;28;20298;-72
2023/10/21 12:42:27;;;;;;;;;;;;;;;;;;5020855;28;20698;-69
2023/10/21 12:44:55;;;;;;;;;;;;;;;;;;5024770;28;19925;-70
2023/10/21 12:47:21;;;;;;;;;;;;;;;;;;5022622;28;19925;-70
2023/10/21 12:49:50;;;;;;;;;;;;;;;;;;5022068;28;19935;-70
2023/10/21 12:52:16;;;;;;;;;;;;;;;;;;5009517;28;19929;-70
2023/10/21 12:54:43;;;;;;;;;;;;;;;;;;5007315;28;20679;-70
2023/10/21 12:57:10;;;;;;;;;;;;;;;;;;5026101;28;19925;-71
2023/10/21 12:59:37;;;;;;;;;;;;;;;;;;5024862;28;19933;-75
2023/10/21 13:02:09;;;;;;;;;;;;;;;;;;5025462;28;20052;-75
2023/10/21 13:04:37;;;;;;;;;;;;;;;;;;5023937;28;20706;-75
2023/10/21 13:07:04;;;;;;;;;;;;;;;;;;5025868;28;19924;-74
2023/10/21 13:09:31;;;;;;;;;;;;;;;;;;5016500;28;19929;-74
2023/10/21 13:11:57;;;;;;;;;;;;;;;;;;5005145;28;19926;-75
2023/10/21 13:14:25;;;;;;;;;;;;;;;;;;5009141;28;19982;-74
2023/10/21 13:16:52;;;;;;;;;;;;;;;;;;5025742;28;20302;-75
2023/10/21 13:19:19;;;;;;;;;;;;;;;;;;5025414;28;19929;-74
2023/10/21 13:21:45;;;;;;;;;;;;;;;;;;5004198;28;20377;-74
2023/10/21 13:24:12;;;;;;;;;;;;;;;;;;5023272;28;20417;-74
2023/10/21 13:26:39;;;;;;;;;;;;;;;;;;5024913;28;20106;-74
2023/10/21 13:29:06;;;;;;;;;;;;;;;;;;5023973;28;20000;-74
2023/10/21 13:31:33;;;;;;;;;;;;;;;;;;5024083;28;19931;-75
2023/10/21 13:34:02;;;;;;;;;;;;;;;;;;5028952;28;19932;-75
2023/10/21 13:36:30;;;;;;;;;;;;;;;;;;5031503;28;19925;-75
2023/10/21 13:39:00;;;;;;;;;;;;;;;;;;5030512;28;19952;-76
2023/10/21 13:41:27;;;;;;;;;;;;;;;;;;5027418;28;19924;-75
2023/10/21 13:43:53;;;;;;;;;;;;;;;;;;5022324;28;19925;-77
2023/10/21 13:46:20;;;;;;;;;;;;;;;;;;5026065;28;19932;-78
2023/10/21 13:48:46;;;;;;;;;;;;;;;;;;5030184;28;20160;-76
2023/10/21 13:51:13;;;;;;;;;;;;;;;;;;5032301;28;19925;-73
2023/10/21 13:53:41;;;;;;;;;;;;;;;;;;5033008;28;20514;-74
2023/10/21 13:56:08;;;;;;;;;;;;;;;;;;5031629;28;19935;-74
2023/10/21 13:58:35;;;;;;;;;;;;;;;;;;5035831;28;19924;-76
2023/10/21 14:01:01;;;;;;;;;;;;;;;;;;5032980;28;19924;-75
2023/10/21 14:03:28;;;;;;;;;;;;;;;;;;5033836;28;19931;-73
2023/10/21 14:05:56;;;;;;;;;;;;;;;;;;5034384;28;19931;-76
2023/10/21 14:08:25;;;;;;;;;;;;;;;;;;5028812;28;19925;-77
2023/10/21 14:10:52;;;;;;;;;;;;;;;;;;5044185;28;19928;-73
2023/10/21 14:13:23;;;;;;;;;;;;;;;;;;5051534;28;19929;-76
2023/10/21 14:15:51;;;;;;;;;;;;;;;;;;5020234;28;19974;-76
2023/10/21 14:18:18;;;;;;;;;;;;;;;;;;5025134;28;19924;-76
2023/10/21 14:20:49;;;;;;;;;;;;;;;;;;5017667;28;19925;-75
2023/10/21 14:23:15;;;;;;;;;;;;;;;;;;5022586;28;20739;-76
2023/10/21 14:25:42;;;;;;;;;;;;;;;;;;5017070;28;20409;-76
2023/10/21 14:28:13;;;;;;;;;;;;;;;;;;5027277;28;20394;-76
2023/10/21 14:30:42;;;;;;;;;;;;;;;;;;5025833;28;19929;-76
2023/10/21 14:33:11;;;;;;;;;;;;;;;;;;5021416;28;19933;-76
2023/10/21 14:35:37;;;;;;;;;;;;;;;;;;5019413;28;19925;-75
2023/10/21 14:38:04;;;;;;;;;;;;;;;;;;5024886;28;20437;-75
2023/10/21 14:40:30;;;;;;;;;;;;;;;;;;5022880;28;20401;-75
2023/10/21 14:42:57;;;;;;;;;;;;;;;;;;5024461;28;19931;-75
2023/10/21 14:45:23;;;;;;;;;;;;;;;;;;5020545;28;20023;-74
2023/10/21 14:47:50;;;;;;;;;;;;;;;;;;5031416;28;19925;-80
2023/10/21 14:50:16;;;;;;;;;;;;;;;;;;5032644;28;20631;-81
2023/10/21 14:52:43;;;;;;;;;;;;;;;;;;5016177;28;19925;-77
2023/10/21 14:55:10;;;;;;;;;;;;;;;;;;5001447;28;19937;-75
2023/10/21 14:57:36;;;;;;;;;;;;;;;;;;5004153;28;19925;-76
2023/10/21 15:00:06;;;;;;;;;;;;;;;;;;5005649;28;19932;-76
2023/10/21 15:02:33;;;;;;;;;;;;;;;;;;5004486;28;19933;-77
2023/10/21 15:05:00;;;;;;;;;;;;;;;;;;5006775;28;19929;-74
2023/10/21 15:07:27;;;;;;;;;;;;;;;;;;5003196;28;19932;-75
2023/10/21 15:09:53;;;;;;;;;;;;;;;;;;5001182;28;19931;-75
2023/10/21 15:12:20;;;;;;;;;;;;;;;;;;5024015;28;19925;-74
2023/10/21 15:14:46;;;;;;;;;;;;;;;;;;5021252;28;19925;-76
2023/10/21 15:17:24;;;;;;;;;;;;;;;;;;5025771;28;19929;-75
2023/10/21 15:19:50;;;;;;;;;;;;;;;;;;5023375;28;19929;-76
2023/10/21 15:22:17;;;;;;;;;;;;;;;;;;5026087;28;19935;-75
2023/10/21 15:24:43;;;;;;;;;;;;;;;;;;5018347;28;20012;-75
2023/10/21 15:27:10;;;;;;;;;;;;;;;;;;5021323;28;19929;-76
2023/10/21 15:29:37;;;;;;;;;;;;;;;;;;5020596;28;19925;-76
2023/10/21 15:32:07;;;;;;;;;;;;;;;;;;5021751;28;19925;-76
2023/10/21 15:34:33;;;;;;;;;;;;;;;;;;5021455;28;19947;-75
2023/10/21 15:37:00;;;;;;;;;;;;;;;;;;5020524;28;19928;-76
2023/10/21 15:39:27;;;;;;;;;;;;;;;;;;5021927;28;19991;-76
2023/10/21 15:41:53;;;;;;;;;;;;;;;;;;5021401;28;20303;-77
2023/10/21 15:44:20;;;;;;;;;;;;;;;;;;5022088;28;19925;-75
2023/10/21 15:46:47;;;;;;;;;;;;;;;;;;5024256;28;21040;-75
2023/10/21 15:49:13;;;;;;;;;;;;;;;;;;5021724;28;20332;-76
2023/10/21 15:51:40;;;;;;;;;;;;;;;;;;5019572;28;20411;-76
2023/10/21 15:54:06;;;;;;;;;;;;;;;;;;5025500;28;19932;-75
2023/10/21 15:56:33;;;;;;;;;;;;;;;;;;5023735;28;20023;-75
2023/10/21 15:58:59;;;;;;;;;;;;;;;;;;5023642;28;19925;-75
2023/10/21 16:01:31;;;;;;;;;;;;;;;;;;5027734;28;19925;-75
2023/10/21 16:03:58;;;;;;;;;;;;;;;;;;5023513;28;20418;-75
2023/10/21 16:06:28;;;;;;;;;;;;;;;;;;5036823;28;19925;-77
2023/10/21 16:08:54;;;;;;;;;;;;;;;;;;5042563;28;20595;-79
2023/10/21 16:11:21;;;;;;;;;;;;;;;;;;5041349;28;21834;-77
2023/10/21 16:13:51;;;;;;;;;;;;;;;;;;5042219;28;20015;-81
2023/10/21 16:16:18;;;;;;;;;;;;;;;;;;5039114;28;19925;-83
2023/10/21 16:18:45;;;;;;;;;;;;;;;;;;5028850;28;19924;-86
2023/10/21 16:21:12;;;;;;;;;;;;;;;;;;5008713;28;19996;-86
2023/10/21 16:23:44;;;;;;;;;;;;;;;;;;5028351;28;19932;-88
2023/10/21 16:26:11;;;;;;;;;;;;;;;;;;5013730;28;19925;-84
2023/10/21 16:28:38;;;;;;;;;;;;;;;;;;5035608;28;19929;-84
2023/10/21 16:31:06;;;;;;;;;;;;;;;;;;5032960;28;19925;-86
2023/10/21 16:33:42;;;;;;;;;;;;;;;;;;5022238;28;19932;-82
2023/10/21 16:36:09;;;;;;;;;;;;;;;;;;5035100;28;19956;-83
2023/10/21 16:38:36;;;;;;;;;;;;;;;;;;5021828;28;20000;-81
2023/10/21 16:41:05;;;;;;;;;;;;;;;;;;5030725;28;19929;-85
2023/10/21 16:43:35;;;;;;;;;;;;;;;;;;5030789;28;19928;-86
2023/10/21 16:46:02;;;;;;;;;;;;;;;;;;5028545;28;20579;-85
2023/10/21 16:48:28;;;;;;;;;;;;;;;;;;5006972;28;19935;-85
2023/10/21 16:50:55;;;;;;;;;;;;;;;;;;5020787;28;20330;-86
2023/10/21 16:53:22;;;;;;;;;;;;;;;;;;5009805;28;19925;-85
2023/10/21 16:55:49;;;;;;;;;;;;;;;;;;5039774;28;20411;-85
2023/10/21 16:58:15;;;;;;;;;;;;;;;;;;5011509;28;19931;-85
2023/10/21 17:00:42;;;;;;;;;;;;;;;;;;5034576;28;19929;-86
2023/10/21 17:03:09;;;;;;;;;;;;;;;;;;5031001;28;19929;-82
2023/10/21 17:05:35;;;;;;;;;;;;;;;;;;5031599;28;19932;-85
2023/10/21 17:08:02;;;;;;;;;;;;;;;;;;4988221;28;20271;-84
2023/10/21 17:10:30;;;;;;;;;;;;;;;;;;4989652;28;20461;-86
2023/10/21 17:13:47;;;;;;;;;;;;;;;;;;5000385;28;19925;-87
2023/10/21 17:16:14;;;;;;;;;;;;;;;;;;5027020;28;19932;-82
2023/10/21 17:18:50;;;;;;;;;;;;;;;;;;5052136;28;19925;-84
2023/10/21 17:21:40;;;;;;;;;;;;;;;;;;5005990;28;19988;-86